首页
METAR-TAF:

METAR-TAF

机场 :

日利納, 斯洛伐克

纬度: 49-14N, 经度: 018-36-49E, 海拔: 312米

当前天气观测

该预报发布于40分钟前的21:00 UTC
风速1节,风向多变
温度 17°C
湿度 94%
气压 1022 hPa
能见度10公里或以上
少量云层高于400英尺

METAR: LZZI 212100Z VRB01KT 9999 FEW004 17/16 Q1022

时间: 23:40 (21:40 UTC)

预报

该预报发布于1小时和40分钟前的20:00 UTC
预报有效从21日的 21点(UTC)到 22日的 06点(UTC)
风速2节,风向多变
能见度10公里或以上
少量云层高于2200英尺
散云层高于7000英尺
成为
从 21日的 22点(UTC)到 22日的 00点(UTC)
能見度: 2200
少量云层高于200英尺
多云层高于900英尺
轻雾
短暂存在
从 22日的 00点(UTC)到 22日的 06点(UTC)
能見度: 0600
多云层高于100英尺

TAF: LZZI 212000Z 2121/2206 VRB02KT 9999 FEW022 SCT070 BECMG 2122/2200 2200 BR FEW002 BKN009 TEMPO 2200/2206 0600 FG BKN001

超过4000个机场的气象观测和天气预报(METAR&TAF报告)。

可查询的气象台以黄色和红色小点在地图上表示。

将鼠标移到小点上方,可查看气象台名称。

然后点击查看天气观测和预报。

如需切换地图:点击带黑十字的绿色按钮放大地图;点击带横线的绿色按钮缩小地图;或者点击绿色箭头查看邻近地区的地图。


METAR-TAF: